Palisades, Washington
Current Conditions -  °F | °C
As of 10:38 AM on Thursday 30 Oct 2014 (Local Time) from KEAT Reporting Station
Light Rain Light Rain  
Wind Chill: 50°   Ceiling: 300
Heat Index: 50°   Visibility: 7mi
Dew Point: 46°   Wind: 3mph
Humidity: 86%   Direction: 240°WSW
Pressure: 30.07"   Gusts: NA
Location:  47.42°N, 119.92°W
Report Text: KEAT 301738Z AUTO 24003KT 7SM -RA BKN003 OVC021 10/08 A3007 RMK AO2 P0001 T01000078
Loading
Personal Weather Stations






























Interactive Weather Map
Tropical Storm Tracking
New forecast layout! Learn more

10-Day Weather Forecast

Advertisements
Track Severe Weather on mobile